Time;durP1;ratioP1;P1;durP2;ratioP2;P2;SDS_P1;SDS_P2;PMS_P1;PMS_P2;Temp;Humidity;BMP_temperature;BMP_pressure;BME280_temperature;BME280_humidity;BME280_pressure;Samples;Min_cycle;Max_cycle;Signal;HPM_P1;HPM_P2
2023/09/17 00:00:37;;;;;;;0.88;0.88;;;22.40;73.40;;;;;;4946706;28;20156;-77
2023/09/17 00:03:03;;;;;;;1.00;1.00;;;22.40;73.40;;;;;;4944787;28;20043;-77
2023/09/17 00:05:31;;;;;;;1.10;1.00;;;22.40;73.40;;;;;;4946055;28;20023;-77
2023/09/17 00:07:56;;;;;;;1.05;1.05;;;22.40;73.30;;;;;;4957793;28;20424;-77
2023/09/17 00:10:22;;;;;;;1.50;1.45;;;22.40;73.30;;;;;;4968420;28;20053;-77
2023/09/17 00:12:48;;;;;;;1.20;1.20;;;22.50;73.50;;;;;;4966456;28;20458;-77
2023/09/17 00:15:14;;;;;;;0.98;0.98;;;22.50;73.40;;;;;;4966835;28;20058;-77
2023/09/17 00:17:40;;;;;;;1.20;1.20;;;22.40;73.40;;;;;;4966072;28;20031;-77
2023/09/17 00:20:10;;;;;;;1.02;1.02;;;22.40;73.30;;;;;;4960868;28;20352;-77
2023/09/17 00:22:36;;;;;;;1.08;1.08;;;22.40;73.40;;;;;;4966384;28;20057;-77
2023/09/17 00:25:02;;;;;;;1.48;0.90;;;22.40;73.30;;;;;;4966712;28;20566;-77
2023/09/17 00:27:27;;;;;;;1.23;1.23;;;22.40;73.30;;;;;;4966720;28;20039;-77
2023/09/17 00:29:53;;;;;;;1.33;1.30;;;22.40;73.30;;;;;;4966727;28;20049;-77
2023/09/17 00:32:18;;;;;;;1.20;1.20;;;22.40;73.30;;;;;;4967481;28;20101;-77
2023/09/17 00:34:44;;;;;;;1.20;1.20;;;22.40;73.40;;;;;;4967002;28;20034;-77
2023/09/17 00:37:10;;;;;;;1.20;1.10;;;22.40;73.40;;;;;;4967159;28;20050;-77
2023/09/17 00:39:36;;;;;;;1.05;1.05;;;22.40;73.40;;;;;;4965585;28;20038;-77
2023/09/17 00:42:01;;;;;;;1.08;1.08;;;22.40;73.30;;;;;;4967207;28;20035;-77
2023/09/17 00:44:27;;;;;;;0.82;0.82;;;22.40;73.30;;;;;;4965941;28;20054;-77
2023/09/17 00:46:52;;;;;;;1.10;1.10;;;22.40;73.20;;;;;;4967238;28;20042;-77
2023/09/17 00:49:18;;;;;;;1.15;1.05;;;22.40;73.20;;;;;;4967247;28;20069;-77
2023/09/17 00:51:44;;;;;;;1.00;1.00;;;22.40;73.30;;;;;;4966559;28;20386;-77
2023/09/17 00:54:10;;;;;;;1.10;1.10;;;22.40;74.10;;;;;;4965473;28;20047;-77
2023/09/17 00:56:36;;;;;;;1.02;1.02;;;22.40;73.30;;;;;;4965828;28;20039;-77
2023/09/17 00:59:03;;;;;;;1.05;1.05;;;22.40;73.30;;;;;;4965524;28;20050;-77
2023/09/17 01:01:29;;;;;;;0.90;0.90;;;22.40;73.30;;;;;;4965310;28;20061;-77
2023/09/17 01:03:55;;;;;;;0.90;0.90;;;22.40;73.20;;;;;;4964995;28;20074;-77
2023/09/17 01:06:20;;;;;;;0.80;0.80;;;22.40;73.20;;;;;;4966346;28;20051;-77
2023/09/17 01:08:46;;;;;;;0.82;0.82;;;22.40;73.20;;;;;;4965240;28;20055;-77
2023/09/17 01:11:12;;;;;;;1.00;1.00;;;22.40;73.30;;;;;;4965213;28;20045;-77
2023/09/17 01:13:41;;;;;;;1.20;1.20;;;22.40;73.30;;;;;;4964484;28;20035;-77
2023/09/17 01:16:07;;;;;;;1.02;1.02;;;22.40;73.30;;;;;;4962311;28;20035;-77
2023/09/17 01:18:33;;;;;;;1.10;1.10;;;22.40;73.30;;;;;;4966372;28;20512;-77
2023/09/17 01:21:15;;;;;;;1.00;1.00;;;22.40;73.40;;;;;;4977624;28;20124;-77
2023/09/17 01:24:07;;;;;;;1.10;1.10;;;22.40;73.30;;;;;;4964124;28;20413;-77
2023/09/17 01:26:32;;;;;;;1.05;1.05;;;22.40;73.30;;;;;;4964418;28;20046;-77
2023/09/17 01:28:59;;;;;;;1.10;1.10;;;22.40;73.20;;;;;;4980525;28;20109;-77
2023/09/17 01:31:24;;;;;;;1.20;1.20;;;22.40;73.20;;;;;;4966956;28;20109;-77
2023/09/17 01:33:50;;;;;;;1.10;1.10;;;22.40;73.20;;;;;;4965405;28;20055;-77
2023/09/17 01:36:35;;;;;;;1.13;1.13;;;22.40;73.20;;;;;;4965594;28;20058;-77
2023/09/17 01:39:05;;;;;;;0.85;0.85;;;22.40;73.20;;;;;;4950754;28;20098;-77
2023/09/17 01:41:34;;;;;;;1.00;1.00;;;22.40;73.10;;;;;;4950342;28;20046;-77
2023/09/17 01:44:00;;;;;;;1.05;1.00;;;22.40;73.10;;;;;;4965954;28;20047;-77
2023/09/17 01:46:26;;;;;;;1.10;1.10;;;22.40;73.20;;;;;;4966156;28;20050;-77
2023/09/17 01:48:52;;;;;;;1.20;1.20;;;22.40;73.20;;;;;;4964416;28;20048;-77
2023/09/17 01:51:17;;;;;;;1.00;1.00;;;22.40;73.20;;;;;;4964226;28;20036;-77
2023/09/17 01:53:43;;;;;;;1.02;1.02;;;22.40;73.20;;;;;;4967394;28;20475;-77
2023/09/17 01:56:10;;;;;;;1.30;1.30;;;22.40;73.20;;;;;;4950746;28;20393;-77
2023/09/17 01:58:36;;;;;;;1.10;1.05;;;22.40;73.20;;;;;;4967535;28;20489;-77
2023/09/17 02:01:02;;;;;;;1.10;1.10;;;22.40;73.20;;;;;;4969019;28;20130;-77
2023/09/17 02:03:28;;;;;;;1.10;1.10;;;22.40;73.20;;;;;;4969062;28;20043;-77
2023/09/17 02:05:54;;;;;;;1.00;1.00;;;22.40;73.20;;;;;;4969927;28;20078;-77
2023/09/17 02:08:19;;;;;;;1.17;1.17;;;22.40;73.20;;;;;;4971081;28;20082;-77
2023/09/17 02:10:45;;;;;;;1.05;1.05;;;22.40;73.10;;;;;;4967192;28;20047;-77
2023/09/17 02:13:10;;;;;;;1.08;1.08;;;22.40;73.20;;;;;;4969499;28;20177;-77
2023/09/17 02:15:36;;;;;;;1.05;1.05;;;22.40;73.20;;;;;;4968803;28;20051;-77
2023/09/17 02:18:03;;;;;;;1.10;1.10;;;22.40;73.10;;;;;;4967202;28;20078;-77
2023/09/17 02:20:28;;;;;;;1.00;1.00;;;22.40;73.20;;;;;;4969870;28;20051;-77
2023/09/17 02:22:54;;;;;;;1.10;1.10;;;22.40;73.20;;;;;;4968553;28;20050;-77
2023/09/17 02:25:20;;;;;;;1.13;1.13;;;22.40;73.10;;;;;;4968949;28;20149;-77
2023/09/17 02:27:46;;;;;;;0.80;0.80;;;22.40;73.20;;;;;;4969933;28;20039;-77
2023/09/17 02:30:12;;;;;;;1.30;1.30;;;22.40;73.10;;;;;;4969052;28;20054;-77
2023/09/17 02:32:37;;;;;;;1.00;1.00;;;22.40;73.10;;;;;;4962927;28;20505;-77
2023/09/17 02:35:06;;;;;;;1.05;1.05;;;22.40;73.10;;;;;;4969530;28;20034;-77
2023/09/17 02:37:32;;;;;;;1.02;1.02;;;22.30;73.90;;;;;;4968374;28;20796;-77
2023/09/17 02:39:58;;;;;;;1.08;1.08;;;22.40;73.10;;;;;;4968344;28;20039;-77
2023/09/17 02:42:24;;;;;;;1.05;1.05;;;22.30;73.10;;;;;;4968945;28;20170;-77
2023/09/17 02:44:50;;;;;;;1.50;1.50;;;22.30;73.10;;;;;;4969023;28;24108;-77
2023/09/17 02:47:15;;;;;;;1.20;1.20;;;22.40;73.20;;;;;;4968642;28;20042;-77
2023/09/17 02:49:41;;;;;;;1.30;1.30;;;22.40;73.10;;;;;;4968681;28;20031;-77
2023/09/17 02:52:06;;;;;;;1.20;1.20;;;22.30;73.10;;;;;;4968375;28;20473;-77
2023/09/17 02:54:36;;;;;;;0.98;0.98;;;22.30;73.10;;;;;;4969341;28;20065;-77
2023/09/17 02:57:02;;;;;;;1.00;1.00;;;22.40;73.10;;;;;;4967813;28;21558;-77
2023/09/17 02:59:27;;;;;;;1.10;1.10;;;22.40;73.10;;;;;;4968996;28;20035;-77
2023/09/17 03:01:53;;;;;;;0.90;0.90;;;22.40;73.10;;;;;;4969144;28;20097;-77
2023/09/17 03:04:19;;;;;;;0.80;0.80;;;22.40;73.10;;;;;;4968533;28;20453;-77
2023/09/17 03:06:44;;;;;;;1.30;1.30;;;22.40;73.10;;;;;;4966236;28;20050;-77
2023/09/17 03:09:11;;;;;;;1.00;1.00;;;22.40;73.00;;;;;;4966654;28;20043;-77
2023/09/17 03:11:37;;;;;;;1.10;1.00;;;22.40;73.10;;;;;;4967758;28;20501;-77
2023/09/17 03:14:03;;;;;;;1.10;1.10;;;22.40;73.10;;;;;;4968549;28;20050;-77
2023/09/17 03:16:29;;;;;;;1.00;1.00;;;22.40;73.00;;;;;;4967825;28;20147;-77
2023/09/17 03:18:55;;;;;;;1.23;1.20;;;22.40;73.10;;;;;;4968487;28;20042;-77
2023/09/17 03:21:21;;;;;;;1.20;1.20;;;22.40;73.10;;;;;;4967886;28;20055;-77
2023/09/17 03:23:46;;;;;;;1.00;1.00;;;22.40;73.60;;;;;;4967713;28;20050;-77
2023/09/17 03:26:12;;;;;;;1.10;1.10;;;22.40;73.10;;;;;;4968167;28;20097;-77
2023/09/17 03:28:37;;;;;;;0.95;0.95;;;22.30;73.00;;;;;;4967007;28;20038;-77
2023/09/17 03:31:03;;;;;;;0.90;0.90;;;22.40;73.00;;;;;;4968127;28;20413;-77
2023/09/17 03:33:29;;;;;;;0.90;0.90;;;22.30;73.00;;;;;;4966162;28;20038;-77
2023/09/17 03:35:55;;;;;;;0.93;0.93;;;22.30;73.00;;;;;;4966767;28;20330;-77
2023/09/17 03:38:20;;;;;;;1.08;1.08;;;22.30;73.00;;;;;;4968767;28;20504;-77
2023/09/17 03:40:46;;;;;;;1.40;1.40;;;22.30;73.00;;;;;;4967979;28;20039;-77
2023/09/17 03:43:11;;;;;;;1.10;1.10;;;22.30;73.00;;;;;;4967410;28;20536;-77
2023/09/17 03:45:37;;;;;;;0.85;0.85;;;22.30;73.00;;;;;;4966576;28;20039;-77
2023/09/17 03:48:04;;;;;;;0.90;0.90;;;22.30;73.00;;;;;;4966449;28;20512;-77
2023/09/17 03:50:30;;;;;;;0.95;0.95;;;22.40;73.00;;;;;;4968623;28;20108;-77
2023/09/17 03:52:57;;;;;;;1.08;1.08;;;22.40;73.10;;;;;;4958275;28;20397;-77
2023/09/17 03:55:23;;;;;;;1.10;1.10;;;22.30;73.00;;;;;;4964860;28;20181;-77
2023/09/17 03:57:49;;;;;;;1.05;1.05;;;22.30;73.00;;;;;;4981843;28;20122;-77
2023/09/17 04:00:15;;;;;;;1.20;1.10;;;22.40;73.10;;;;;;4964977;28;20259;-77
2023/09/17 04:02:41;;;;;;;0.80;0.80;;;22.40;73.10;;;;;;4967014;28;20047;-77
2023/09/17 04:05:09;;;;;;;0.95;0.95;;;22.30;73.00;;;;;;4967188;28;20174;-77
2023/09/17 04:07:35;;;;;;;0.90;0.90;;;22.30;73.10;;;;;;4964290;28;20112;-77
2023/09/17 04:10:02;;;;;;;0.82;0.82;;;22.40;73.90;;;;;;4967329;28;20517;-77
2023/09/17 04:12:28;;;;;;;1.02;1.02;;;22.30;73.10;;;;;;4967717;28;20070;-77
2023/09/17 04:14:54;;;;;;;0.98;0.98;;;22.30;73.00;;;;;;4964167;28;20071;-77
2023/09/17 04:17:20;;;;;;;1.00;1.00;;;22.30;73.00;;;;;;4965077;28;20050;-77
2023/09/17 04:19:45;;;;;;;1.02;1.02;;;22.30;73.00;;;;;;4965916;28;20062;-77
2023/09/17 04:22:11;;;;;;;1.60;1.05;;;22.30;73.00;;;;;;4966500;28;20097;-77
2023/09/17 04:24:38;;;;;;;0.95;0.95;;;22.30;73.00;;;;;;4965859;28;20520;-77
2023/09/17 04:27:04;;;;;;;0.88;0.88;;;22.30;73.00;;;;;;4966712;28;20035;-77
2023/09/17 04:29:30;;;;;;;0.90;0.90;;;22.30;73.00;;;;;;4968399;28;20050;-77
2023/09/17 04:31:55;;;;;;;0.95;0.95;;;22.40;73.00;;;;;;4965857;28;20039;-77
2023/09/17 04:34:21;;;;;;;0.98;0.98;;;22.30;73.00;;;;;;4964539;28;20437;-77
2023/09/17 04:36:47;;;;;;;0.80;0.80;;;22.30;73.00;;;;;;4966268;28;20047;-77
2023/09/17 04:39:14;;;;;;;0.75;0.75;;;22.30;73.00;;;;;;4967117;28;20043;-77
2023/09/17 04:41:40;;;;;;;1.10;1.10;;;22.30;73.00;;;;;;4966503;28;20038;-77
2023/09/17 04:44:10;;;;;;;0.98;0.98;;;22.30;73.00;;;;;;4967799;28;20047;-77
2023/09/17 04:46:43;;;;;;;0.80;0.80;;;22.30;73.00;;;;;;4967090;28;20054;-77
2023/09/17 04:49:09;;;;;;;0.70;0.70;;;22.40;73.10;;;;;;4967189;28;20043;-77
2023/09/17 04:51:34;;;;;;;0.98;0.98;;;22.30;73.00;;;;;;4967382;28;20057;-77
2023/09/17 04:54:01;;;;;;;1.00;1.00;;;22.30;73.00;;;;;;4964674;28;20042;-77
2023/09/17 04:56:27;;;;;;;0.90;0.90;;;22.30;73.00;;;;;;4966898;28;20045;-77
2023/09/17 04:58:52;;;;;;;0.77;0.77;;;22.30;73.00;;;;;;4967948;28;20068;-77
2023/09/17 05:01:18;;;;;;;0.98;0.98;;;22.30;73.00;;;;;;4966021;28;20049;-77
2023/09/17 05:03:43;;;;;;;0.80;0.80;;;22.30;73.00;;;;;;4965051;28;20583;-77
2023/09/17 05:06:09;;;;;;;0.80;0.80;;;22.30;73.00;;;;;;4966257;28;20035;-77
2023/09/17 05:08:34;;;;;;;0.82;0.82;;;22.30;73.00;;;;;;4965562;28;20159;-77
2023/09/17 05:11:00;;;;;;;0.80;0.80;;;22.30;73.00;;;;;;4965071;28;20067;-77
2023/09/17 05:13:26;;;;;;;0.75;0.75;;;22.30;73.10;;;;;;4966799;28;20035;-77
2023/09/17 05:15:51;;;;;;;0.77;0.77;;;22.30;73.10;;;;;;4964760;28;20058;-77
2023/09/17 05:18:17;;;;;;;0.80;0.80;;;22.30;73.10;;;;;;4966626;28;20035;-77
2023/09/17 05:20:44;;;;;;;0.88;0.88;;;22.30;73.10;;;;;;4966513;28;20493;-77
2023/09/17 05:23:11;;;;;;;0.80;0.80;;;22.30;73.10;;;;;;4967475;28;20046;-77
2023/09/17 05:25:36;;;;;;;0.80;0.80;;;22.30;73.10;;;;;;4967333;28;20066;-77
2023/09/17 05:28:06;;;;;;;0.70;0.70;;;22.30;73.20;;;;;;4980659;28;20106;-77
2023/09/17 05:30:33;;;;;;;0.90;0.90;;;22.30;73.10;;;;;;4965403;28;20097;-77
2023/09/17 05:32:58;;;;;;;0.80;0.80;;;22.30;73.20;;;;;;4969770;28;20054;-77
2023/09/17 05:35:24;;;;;;;0.90;0.90;;;22.30;73.10;;;;;;4970294;28;20039;-77
2023/09/17 05:37:49;;;;;;;0.95;0.95;;;22.30;73.10;;;;;;4970444;28;20122;-77
2023/09/17 05:40:15;;;;;;;0.90;0.90;;;22.30;73.10;;;;;;4970237;28;20038;-77
2023/09/17 05:42:41;;;;;;;0.90;0.90;;;22.30;73.10;;;;;;4970421;28;20405;-77
2023/09/17 05:45:07;;;;;;;1.00;1.00;;;22.30;73.10;;;;;;4969887;28;20089;-77
2023/09/17 05:47:33;;;;;;;0.70;0.70;;;22.30;73.10;;;;;;4970762;28;20049;-77
2023/09/17 05:49:59;;;;;;;0.90;0.90;;;22.30;73.10;;;;;;4970842;28;20038;-77
2023/09/17 05:52:25;;;;;;;0.88;0.88;;;22.30;73.10;;;;;;4968534;28;20043;-77
2023/09/17 05:54:50;;;;;;;0.90;0.90;;;22.30;73.20;;;;;;4967209;28;20496;-77
2023/09/17 05:57:16;;;;;;;0.90;0.90;;;22.30;73.90;;;;;;4968812;28;20572;-77
2023/09/17 05:59:42;;;;;;;0.90;0.90;;;22.30;73.20;;;;;;4969873;28;20050;-77
2023/09/17 06:02:09;;;;;;;0.90;0.90;;;22.30;73.10;;;;;;4970943;28;20544;-77
2023/09/17 06:04:35;;;;;;;0.73;0.73;;;22.30;74.00;;;;;;4970091;28;20560;-77
2023/09/17 06:07:00;;;;;;;0.90;0.90;;;22.30;73.20;;;;;;4968231;28;20117;-77
2023/09/17 06:09:26;;;;;;;0.90;0.90;;;22.30;73.20;;;;;;4969857;28;20062;-77
2023/09/17 06:11:52;;;;;;;0.90;0.90;;;22.30;73.20;;;;;;4968283;28;20509;-77
2023/09/17 06:14:17;;;;;;;0.80;0.80;;;22.30;73.20;;;;;;4970169;28;20089;-77
2023/09/17 06:16:43;;;;;;;0.85;0.85;;;22.30;73.20;;;;;;4970648;28;20412;-77
2023/09/17 06:19:09;;;;;;;1.00;1.00;;;22.30;73.20;;;;;;4969175;28;20057;-77
2023/09/17 06:21:34;;;;;;;0.90;0.90;;;22.30;73.20;;;;;;4965962;28;20479;-77
2023/09/17 06:24:00;;;;;;;0.90;0.90;;;22.30;73.20;;;;;;4965384;28;20054;-77
2023/09/17 06:26:25;;;;;;;0.77;0.77;;;22.30;73.30;;;;;;4969579;28;20058;-77
2023/09/17 06:28:51;;;;;;;0.93;0.93;;;22.30;73.30;;;;;;4969907;28;20733;-77
2023/09/17 06:31:16;;;;;;;0.93;0.80;;;22.30;73.30;;;;;;4968876;28;20047;-77
2023/09/17 06:33:42;;;;;;;0.90;0.90;;;22.30;73.20;;;;;;4968577;28;20134;-77
2023/09/17 06:36:08;;;;;;;0.80;0.80;;;22.30;73.20;;;;;;4967395;28;20058;-77
2023/09/17 06:38:33;;;;;;;0.95;0.95;;;22.30;73.20;;;;;;4968425;28;20078;-77
2023/09/17 06:40:59;;;;;;;1.00;1.00;;;22.30;73.20;;;;;;4970464;28;20677;-77
2023/09/17 06:43:25;;;;;;;0.77;0.77;;;22.30;73.20;;;;;;4968186;28;20051;-77
2023/09/17 06:45:51;;;;;;;0.80;0.80;;;22.30;73.20;;;;;;4969435;28;20041;-77
2023/09/17 06:48:16;;;;;;;0.85;0.82;;;22.30;73.20;;;;;;4967392;28;20047;-77
2023/09/17 06:50:42;;;;;;;0.90;0.90;;;22.30;73.20;;;;;;4970282;28;20058;-77
2023/09/17 06:53:07;;;;;;;1.00;1.00;;;22.30;73.20;;;;;;4968277;28;20039;-77
2023/09/17 06:55:34;;;;;;;0.75;0.75;;;22.30;73.20;;;;;;4968510;28;20134;-77
2023/09/17 06:57:59;;;;;;;0.60;0.60;;;22.30;73.20;;;;;;4966652;28;20047;-77
2023/09/17 07:00:25;;;;;;;0.88;0.88;;;22.30;73.20;;;;;;4966582;28;20039;-77
2023/09/17 07:02:51;;;;;;;0.80;0.80;;;22.30;73.20;;;;;;4970310;28;20173;-77
2023/09/17 07:05:16;;;;;;;0.90;0.90;;;22.30;73.20;;;;;;4968904;28;20098;-77
2023/09/17 07:07:42;;;;;;;0.80;0.80;;;22.30;73.20;;;;;;4969273;28;20050;-77
2023/09/17 07:10:08;;;;;;;0.80;0.80;;;22.30;73.10;;;;;;4966927;28;20027;-77
2023/09/17 07:12:38;;;;;;;0.88;0.88;;;22.30;73.10;;;;;;4967997;28;20126;-77
2023/09/17 07:15:05;;;;;;;1.00;1.00;;;22.30;73.90;;;;;;4968945;28;20038;-77
2023/09/17 07:17:31;;;;;;;0.68;0.68;;;22.30;73.10;;;;;;4968314;28;20512;-77
2023/09/17 07:19:57;;;;;;;0.80;0.80;;;22.30;73.10;;;;;;4966340;28;20050;-77
2023/09/17 07:22:22;;;;;;;0.80;0.80;;;22.40;73.10;;;;;;4966967;28;20575;-77
2023/09/17 07:24:53;;;;;;;0.70;0.70;;;22.30;73.00;;;;;;4966443;28;20042;-77
2023/09/17 07:27:18;;;;;;;0.70;0.70;;;22.40;73.20;;;;;;4966248;28;20083;-76
2023/09/17 07:29:45;;;;;;;0.80;0.70;;;22.30;73.20;;;;;;4969268;28;20059;-77
2023/09/17 07:32:12;;;;;;;0.70;0.70;;;22.30;73.20;;;;;;4968264;28;20035;-77
2023/09/17 07:34:37;;;;;;;0.80;0.80;;;22.40;73.30;;;;;;4968026;28;20500;-77
2023/09/17 07:37:04;;;;;;;0.70;0.70;;;22.40;74.20;;;;;;4967879;28;20097;-77
2023/09/17 07:39:30;;;;;;;0.80;0.80;;;22.30;73.30;;;;;;4962073;28;20059;-77
2023/09/17 07:41:55;;;;;;;0.80;0.80;;;22.30;73.30;;;;;;4969049;28;20093;-77
2023/09/17 07:44:21;;;;;;;0.93;0.80;;;22.40;73.30;;;;;;4966660;28;20047;-77
2023/09/17 07:46:47;;;;;;;0.77;0.77;;;22.30;73.30;;;;;;4967564;28;20035;-77
2023/09/17 07:49:12;;;;;;;0.80;0.80;;;22.30;73.30;;;;;;4967109;28;20043;-77
2023/09/17 07:51:38;;;;;;;0.70;0.70;;;22.40;73.30;;;;;;4967472;28;20073;-77
2023/09/17 07:54:04;;;;;;;0.63;0.63;;;22.30;73.30;;;;;;4965585;28;20042;-77
2023/09/17 07:56:30;;;;;;;0.60;0.60;;;22.30;73.30;;;;;;4968576;28;20051;-77
2023/09/17 07:58:55;;;;;;;1.00;0.80;;;22.30;73.30;;;;;;4967974;28;20508;-77
2023/09/17 08:01:21;;;;;;;0.90;0.90;;;22.30;73.40;;;;;;4967127;28;20047;-77
2023/09/17 08:03:46;;;;;;;0.60;0.60;;;22.30;73.50;;;;;;4967245;28;20051;-77
2023/09/17 08:06:12;;;;;;;0.80;0.80;;;22.30;73.50;;;;;;4963126;28;20045;-77
2023/09/17 08:08:37;;;;;;;0.75;0.75;;;22.30;73.50;;;;;;4966449;28;20045;-77
2023/09/17 08:11:03;;;;;;;0.70;0.70;;;22.30;73.60;;;;;;4968293;28;20047;-77
2023/09/17 08:13:29;;;;;;;0.80;0.80;;;22.30;73.50;;;;;;4967876;28;20066;-77
2023/09/17 08:15:55;;;;;;;0.70;0.70;;;22.30;73.60;;;;;;4967193;28;20065;-77
2023/09/17 08:18:20;;;;;;;0.60;0.60;;;22.30;73.50;;;;;;4967843;28;20046;-77
2023/09/17 08:20:46;;;;;;;0.70;0.70;;;22.30;73.50;;;;;;4968238;28;20054;-77
2023/09/17 08:23:11;;;;;;;0.80;0.80;;;22.30;73.50;;;;;;4968843;28;20407;-77
2023/09/17 08:25:37;;;;;;;0.68;0.68;;;22.30;73.40;;;;;;4967066;28;20047;-77
2023/09/17 08:28:03;;;;;;;0.60;0.60;;;22.40;73.40;;;;;;4967946;28;20045;-77
2023/09/17 08:30:29;;;;;;;0.60;0.60;;;22.30;73.50;;;;;;4964747;28;20529;-77
2023/09/17 08:32:57;;;;;;;0.60;0.60;;;22.40;73.30;;;;;;4967755;28;20039;-77
2023/09/17 08:35:22;;;;;;;0.63;0.63;;;22.40;73.30;;;;;;4964600;28;20047;-77
2023/09/17 08:37:49;;;;;;;0.50;0.50;;;22.40;73.30;;;;;;4966529;28;20563;-77
2023/09/17 08:40:17;;;;;;;0.80;0.80;;;22.40;73.00;;;;;;4948127;28;20031;-77
2023/09/17 08:42:43;;;;;;;0.70;0.70;;;22.50;73.80;;;;;;4967292;28;20031;-77
2023/09/17 08:45:10;;;;;;;0.50;0.50;;;22.50;73.00;;;;;;4965564;28;20061;-77
2023/09/17 08:47:38;;;;;;;0.60;0.60;;;22.50;73.00;;;;;;4967218;28;20140;-77
2023/09/17 08:50:05;;;;;;;0.50;0.50;;;22.50;72.90;;;;;;4966904;28;20039;-77
2023/09/17 08:52:32;;;;;;;0.70;0.70;;;22.50;73.00;;;;;;4966130;28;20109;-77
2023/09/17 08:54:58;;;;;;;0.50;0.50;;;22.60;73.20;;;;;;4965780;28;20050;-77
2023/09/17 08:57:24;;;;;;;0.70;0.70;;;22.60;73.20;;;;;;4965367;28;20049;-77
2023/09/17 08:59:56;;;;;;;0.45;0.45;;;22.60;73.30;;;;;;4965410;28;20042;-77
2023/09/17 09:02:25;;;;;;;0.70;0.70;;;22.60;73.10;;;;;;4967051;28;20133;-77
2023/09/17 09:04:51;;;;;;;0.57;0.57;;;22.60;73.10;;;;;;4949597;28;20050;-77
2023/09/17 09:07:23;;;;;;;0.65;0.65;;;22.60;73.00;;;;;;4966103;28;20049;-77
2023/09/17 09:09:51;;;;;;;0.57;0.57;;;22.60;73.00;;;;;;4985528;28;20039;-77
2023/09/17 09:12:17;;;;;;;0.57;0.57;;;22.60;73.00;;;;;;4970129;28;20038;-77
2023/09/17 09:14:44;;;;;;;1.40;0.60;;;22.60;73.00;;;;;;4971282;28;20034;-77
2023/09/17 09:17:10;;;;;;;0.55;0.55;;;22.60;73.00;;;;;;4967443;28;20035;-77
2023/09/17 09:19:36;;;;;;;0.60;0.60;;;22.70;73.10;;;;;;4969086;28;20047;-77
2023/09/17 09:22:02;;;;;;;0.60;0.60;;;22.60;73.10;;;;;;4970110;28;20105;-77
2023/09/17 09:25:01;;;;;;;0.60;0.60;;;22.60;73.10;;;;;;4970625;28;20061;-77
2023/09/17 09:27:26;;;;;;;0.60;0.60;;;22.60;73.20;;;;;;4950461;28;20066;-77
2023/09/17 09:29:52;;;;;;;0.50;0.50;;;22.60;73.30;;;;;;4970552;28;20082;-77
2023/09/17 09:32:18;;;;;;;0.70;0.70;;;22.60;73.30;;;;;;4969753;28;20055;-77
2023/09/17 09:34:46;;;;;;;0.70;0.70;;;22.60;73.70;;;;;;4953243;28;20578;-77
2023/09/17 09:37:12;;;;;;;0.50;0.50;;;22.60;73.40;;;;;;4968250;28;20043;-77
2023/09/17 09:39:38;;;;;;;0.55;0.55;;;22.60;74.10;;;;;;4967513;28;20066;-77
2023/09/17 09:42:04;;;;;;;0.50;0.50;;;22.60;73.40;;;;;;4966294;28;20045;-77
2023/09/17 09:44:30;;;;;;;0.40;0.40;;;22.60;74.00;;;;;;4969149;28;20578;-77
2023/09/17 09:46:58;;;;;;;0.60;0.60;;;22.60;73.50;;;;;;4970132;28;20054;-77
2023/09/17 09:49:24;;;;;;;0.60;0.60;;;22.60;73.70;;;;;;4969113;28;20039;-77
2023/09/17 09:51:51;;;;;;;0.60;0.60;;;22.60;73.60;;;;;;4969666;28;20046;-77
2023/09/17 09:54:17;;;;;;;1.40;0.55;;;22.60;73.30;;;;;;4969045;28;20050;-77
2023/09/17 09:56:42;;;;;;;0.52;0.52;;;22.60;73.40;;;;;;4951560;28;20055;-77
2023/09/17 09:59:08;;;;;;;0.60;0.60;;;22.70;73.30;;;;;;4970077;28;20509;-77
2023/09/17 10:01:37;;;;;;;0.77;0.50;;;22.70;73.30;;;;;;4970389;28;20450;-77
2023/09/17 10:04:06;;;;;;;0.70;0.70;;;22.70;74.10;;;;;;4952477;28;20042;-77
2023/09/17 10:06:32;;;;;;;0.47;0.40;;;22.70;73.30;;;;;;4968114;28;20133;-77
2023/09/17 10:08:58;;;;;;;0.50;0.50;;;22.70;73.20;;;;;;4968817;28;20186;-77
2023/09/17 10:11:24;;;;;;;0.55;0.55;;;22.70;73.20;;;;;;4950793;28;20090;-77
2023/09/17 10:14:04;;;;;;;0.50;0.50;;;22.70;73.30;;;;;;4970164;28;20035;-77
2023/09/17 10:16:30;;;;;;;0.68;0.68;;;22.70;73.30;;;;;;4968091;28;20130;-77
2023/09/17 10:18:56;;;;;;;0.57;0.50;;;22.70;73.40;;;;;;4969433;28;20119;-77
2023/09/17 10:21:22;;;;;;;0.50;0.50;;;22.70;73.50;;;;;;4952499;28;20559;-77
2023/09/17 10:23:49;;;;;;;0.70;0.70;;;22.70;73.50;;;;;;4966791;28;20054;-77
2023/09/17 10:26:15;;;;;;;0.50;0.50;;;22.70;73.50;;;;;;4968032;28;20098;-77
2023/09/17 10:28:40;;;;;;;0.60;0.60;;;22.70;73.50;;;;;;4966502;28;20113;-77
2023/09/17 10:31:06;;;;;;;0.50;0.50;;;22.60;73.50;;;;;;4951178;28;20509;-77
2023/09/17 10:33:32;;;;;;;0.60;0.60;;;22.70;73.50;;;;;;4967491;28;20051;-77
2023/09/17 10:35:57;;;;;;;0.57;0.57;;;22.70;73.50;;;;;;4967246;28;20118;-77
2023/09/17 10:38:24;;;;;;;0.50;0.50;;;22.70;73.50;;;;;;4948583;28;20030;-77
2023/09/17 10:40:50;;;;;;;0.52;0.47;;;22.70;73.40;;;;;;4969502;28;20062;-77
2023/09/17 10:43:16;;;;;;;0.50;0.50;;;22.70;73.40;;;;;;4968689;28;20042;-77
2023/09/17 10:45:41;;;;;;;0.77;0.60;;;22.70;73.40;;;;;;4967180;28;20051;-77
2023/09/17 10:48:08;;;;;;;0.75;0.50;;;22.70;73.40;;;;;;4967528;28;20034;-77
2023/09/17 10:50:35;;;;;;;0.55;0.55;;;22.70;73.40;;;;;;4965985;28;20499;-77
2023/09/17 10:53:00;;;;;;;0.70;0.70;;;22.70;73.40;;;;;;4965629;28;20027;-77
2023/09/17 10:55:26;;;;;;;0.47;0.47;;;22.70;73.50;;;;;;4966352;28;20055;-77
2023/09/17 10:58:06;;;;;;;0.68;0.68;;;22.70;73.50;;;;;;4951788;28;20038;-77
2023/09/17 11:00:34;;;;;;;0.60;0.60;;;22.70;73.60;;;;;;4980167;28;20097;-77
2023/09/17 11:03:00;;;;;;;0.60;0.60;;;22.70;73.60;;;;;;4969533;28;20054;-77
2023/09/17 11:05:25;;;;;;;0.60;0.60;;;22.70;73.60;;;;;;4965161;28;20039;-77
2023/09/17 11:07:52;;;;;;;0.50;0.50;;;22.70;73.60;;;;;;4967885;28;20425;-77
2023/09/17 11:10:19;;;;;;;0.50;0.50;;;22.70;73.70;;;;;;4967967;28;20511;-77
2023/09/17 11:12:46;;;;;;;0.50;0.50;;;22.70;73.70;;;;;;4965641;28;20057;-77
2023/09/17 11:15:13;;;;;;;0.32;0.32;;;22.70;73.60;;;;;;4967760;28;20114;-77
2023/09/17 11:17:39;;;;;;;0.50;0.50;;;22.70;73.50;;;;;;4968230;28;20441;-77
2023/09/17 11:20:12;;;;;;;0.50;0.50;;;22.70;73.50;;;;;;4969529;28;20042;-77
2023/09/17 11:22:38;;;;;;;0.40;0.40;;;22.70;73.70;;;;;;4967288;28;20043;-77
2023/09/17 11:25:04;;;;;;;1.88;0.50;;;22.70;73.80;;;;;;4965673;28;20051;-77
2023/09/17 11:27:48;;;;;;;0.38;0.38;;;22.70;73.80;;;;;;4967515;28;20054;-77
2023/09/17 11:30:15;;;;;;;0.50;0.50;;;22.70;73.80;;;;;;4967814;28;20042;-77
2023/09/17 11:32:41;;;;;;;0.55;0.55;;;22.70;73.80;;;;;;4967454;28;20612;-77
2023/09/17 11:35:07;;;;;;;0.50;0.50;;;22.70;73.60;;;;;;4964599;28;20122;-77
2023/09/17 11:37:33;;;;;;;0.77;0.40;;;22.70;73.60;;;;;;4964674;28;20516;-77
2023/09/17 11:39:58;;;;;;;1.50;0.40;;;22.70;74.40;;;;;;4948040;28;20069;-77
2023/09/17 11:42:26;;;;;;;0.30;0.30;;;22.70;73.70;;;;;;4967959;28;20043;-77
2023/09/17 11:44:55;;;;;;;0.60;0.60;;;22.70;73.70;;;;;;4965472;28;20046;-77
2023/09/17 11:47:20;;;;;;;0.50;0.50;;;22.70;73.60;;;;;;4950598;28;20055;-77
2023/09/17 11:49:46;;;;;;;0.47;0.47;;;22.70;73.60;;;;;;4966135;28;20057;-77
2023/09/17 11:52:12;;;;;;;0.43;0.43;;;22.80;74.40;;;;;;4967547;28;20378;-77
2023/09/17 11:55:03;;;;;;;0.60;0.60;;;22.70;73.50;;;;;;4965550;28;20054;-77
2023/09/17 11:57:28;;;;;;;0.50;0.50;;;22.70;73.50;;;;;;4967192;28;20223;-77
2023/09/17 11:59:55;;;;;;;0.35;0.35;;;22.70;73.50;;;;;;4964221;28;20472;-77
2023/09/17 12:02:20;;;;;;;0.50;0.50;;;22.80;73.50;;;;;;4967944;28;20521;-77
2023/09/17 12:04:46;;;;;;;0.60;0.60;;;22.80;73.50;;;;;;4965998;28;20111;-77
2023/09/17 12:07:12;;;;;;;0.45;0.45;;;22.70;74.20;;;;;;4965803;28;20070;-77
2023/09/17 12:10:00;;;;;;;0.50;0.50;;;22.80;73.40;;;;;;4949410;28;20061;-77
2023/09/17 12:12:27;;;;;;;0.40;0.40;;;22.80;74.30;;;;;;4981232;28;20053;-77
2023/09/17 12:14:53;;;;;;;0.50;0.50;;;22.80;73.50;;;;;;4966094;28;20520;-77
2023/09/17 12:17:18;;;;;;;1.13;0.65;;;22.80;73.50;;;;;;4965446;28;20037;-77
2023/09/17 12:19:46;;;;;;;1.02;0.65;;;22.80;74.30;;;;;;4964979;28;20034;-77
2023/09/17 12:22:11;;;;;;;0.50;0.50;;;22.80;73.60;;;;;;4966765;28;20074;-77
2023/09/17 12:24:56;;;;;;;0.45;0.45;;;22.80;73.60;;;;;;4965701;28;20065;-77
2023/09/17 12:29:50;;;;;;;0.50;0.50;;;22.80;73.80;;;;;;4963989;28;20251;-77
2023/09/17 12:32:20;;;;;;;0.68;0.68;;;22.80;73.70;;;;;;4965333;28;20053;-77
2023/09/17 12:34:48;;;;;;;0.35;0.35;;;22.80;73.60;;;;;;4966699;28;20035;-77
2023/09/17 12:37:13;;;;;;;0.45;0.45;;;22.80;73.60;;;;;;4961852;28;20030;-77
2023/09/17 12:39:42;;;;;;;0.60;0.60;;;22.80;74.40;;;;;;4966924;28;20539;-77
2023/09/17 12:42:08;;;;;;;0.73;0.73;;;22.80;73.70;;;;;;4964821;28;20038;-77
2023/09/17 12:44:33;;;;;;;0.45;0.45;;;22.80;73.90;;;;;;4966541;28;20113;-77
2023/09/17 12:46:59;;;;;;;0.50;0.50;;;22.80;74.60;;;;;;4966501;28;20493;-77